createdAt,value
2022-08-11T00:01:53.052Z,3.10
2022-08-11T00:04:21.758Z,2.90
2022-08-11T00:06:49.559Z,2.77
2022-08-11T00:09:39.343Z,2.53
2022-08-11T00:12:13.190Z,2.90
2022-08-11T00:14:40.393Z,2.63
2022-08-11T00:17:09.557Z,2.60
2022-08-11T00:20:14.101Z,2.77
2022-08-11T00:22:26.711Z,2.70
2022-08-11T00:24:58.604Z,2.60
2022-08-11T00:27:33.293Z,2.80
2022-08-11T00:30:00.482Z,2.80
2022-08-11T00:32:28.482Z,2.87
2022-08-11T00:35:51.588Z,2.70
2022-08-11T00:37:49.363Z,2.63
2022-08-11T00:40:20.701Z,2.80
2022-08-11T00:43:06.767Z,2.67
2022-08-11T00:45:43.899Z,2.50
2022-08-11T00:48:29.163Z,2.63
2022-08-11T00:51:11.297Z,2.73
2022-08-11T00:53:49.918Z,2.90
2022-08-11T00:56:29.808Z,2.80
2022-08-11T00:59:34.529Z,2.70
2022-08-11T01:02:16.739Z,2.60
2022-08-11T01:04:46.998Z,2.80
2022-08-11T01:08:01.189Z,3.17
2022-08-11T01:10:09.910Z,2.93
2022-08-11T01:12:45.912Z,2.93
2022-08-11T01:15:32.190Z,3.00
2022-08-11T01:18:11.233Z,2.80
2022-08-11T01:20:49.588Z,2.80
2022-08-11T01:23:35.329Z,2.70
2022-08-11T01:26:20.681Z,2.90
2022-08-11T01:28:50.575Z,2.73
2022-08-11T01:31:35.730Z,2.90
2022-08-11T01:34:21.740Z,2.70
2022-08-11T01:37:21.298Z,3.20
2022-08-11T01:39:54.603Z,3.10
2022-08-11T01:42:49.289Z,2.80
2022-08-11T01:45:37.729Z,2.90
2022-08-11T01:48:15.831Z,3.10
2022-08-11T01:50:55.036Z,3.00
2022-08-11T01:53:27.592Z,3.17
2022-08-11T01:56:00.942Z,3.03
2022-08-11T01:58:55.085Z,2.90
2022-08-11T02:01:25.243Z,3.00
2022-08-11T02:04:10.376Z,2.67
2022-08-11T02:06:58.268Z,3.30
2022-08-11T02:09:49.889Z,3.13
2022-08-11T02:12:37.937Z,2.90
2022-08-11T02:15:12.814Z,2.97
2022-08-11T02:17:49.518Z,2.63
2022-08-11T02:20:45.309Z,2.57
2022-08-11T02:24:06.535Z,3.10
2022-08-11T02:27:00.957Z,3.37
2022-08-11T02:29:38.629Z,3.20
2022-08-11T02:32:31.186Z,3.07
2022-08-11T02:35:13.602Z,3.30
2022-08-11T02:37:49.677Z,3.17
2022-08-11T02:40:20.988Z,3.30
2022-08-11T02:42:58.855Z,2.80
2022-08-11T02:45:38.317Z,3.13
2022-08-11T02:48:42.971Z,2.93
2022-08-11T02:51:21.860Z,3.20
2022-08-11T02:53:58.505Z,3.23
2022-08-11T02:56:52.294Z,3.47
2022-08-11T02:59:53.205Z,3.30
2022-08-11T03:02:32.498Z,3.40
2022-08-11T03:05:03.641Z,3.13
2022-08-11T03:07:41.105Z,3.43
2022-08-11T03:10:09.922Z,3.00
2022-08-11T03:13:15.687Z,3.80
2022-08-11T03:16:04.553Z,3.43
2022-08-11T03:18:51.807Z,3.57
2022-08-11T03:21:25.007Z,3.33
2022-08-11T03:24:15.970Z,3.50
2022-08-11T03:26:43.079Z,3.73
2022-08-11T03:29:18.166Z,3.60
2022-08-11T03:31:50.124Z,3.67
2022-08-11T03:34:22.417Z,3.63
2022-08-11T03:37:16.880Z,3.67
2022-08-11T03:39:56.601Z,3.70
2022-08-11T03:42:42.482Z,3.60
2022-08-11T03:45:20.631Z,3.60
2022-08-11T03:47:59.729Z,3.70
2022-08-11T03:50:32.631Z,3.53
2022-08-11T03:53:18.420Z,4.20
2022-08-11T03:55:45.768Z,3.57
2022-08-11T03:58:15.924Z,3.70
2022-08-11T04:00:48.988Z,3.53
2022-08-11T04:03:34.750Z,3.40
2022-08-11T04:06:07.257Z,3.70
2022-08-11T04:08:37.503Z,3.87
2022-08-11T04:11:16.906Z,4.03
2022-08-11T04:14:21.360Z,4.03
2022-08-11T04:17:01.278Z,3.77
2022-08-11T04:19:51.499Z,4.13
2022-08-11T04:22:21.683Z,3.70
2022-08-11T04:25:11.378Z,3.60
2022-08-11T04:27:39.156Z,3.57
2022-08-11T04:30:16.121Z,3.40
2022-08-11T04:32:56.943Z,3.53
2022-08-11T04:35:33.157Z,3.47
2022-08-11T04:38:03.368Z,3.33
2022-08-11T04:40:49.575Z,3.60
2022-08-11T04:43:23.143Z,3.30
2022-08-11T04:46:08.831Z,3.73
2022-08-11T04:49:10.894Z,3.50
2022-08-11T04:52:12.614Z,3.45
2022-08-11T04:54:58.592Z,3.15
2022-08-11T04:57:54.484Z,3.17
2022-08-11T05:00:44.817Z,3.13
2022-08-11T05:03:30.553Z,2.92
2022-08-11T05:06:28.185Z,3.30
2022-08-11T05:09:13.209Z,3.55
2022-08-11T05:11:40.335Z,3.38
2022-08-11T05:14:32.059Z,3.25
2022-08-11T05:17:20.014Z,3.20
2022-08-11T05:20:07.162Z,3.00
2022-08-11T05:22:53.610Z,3.00
2022-08-11T05:26:43.342Z,2.80
2022-08-11T05:29:20.400Z,2.80
2022-08-11T05:32:10.577Z,3.17
2022-08-11T05:34:54.760Z,3.17
2022-08-11T05:37:33.123Z,2.90
2022-08-11T05:40:32.416Z,3.00
2022-08-11T05:43:19.048Z,3.13
2022-08-11T05:46:15.469Z,3.42
2022-08-11T05:49:02.615Z,3.50
2022-08-11T05:51:55.781Z,2.90
2022-08-11T05:54:45.880Z,3.05
2022-08-11T05:57:38.520Z,2.95
2022-08-11T06:00:14.899Z,2.88
2022-08-11T06:02:50.455Z,3.22
2022-08-11T06:05:19.513Z,3.15
2022-08-11T06:07:49.505Z,2.92
2022-08-11T06:10:27.104Z,3.10
2022-08-11T06:12:55.932Z,2.95
2022-08-11T06:15:23.352Z,3.10
2022-08-11T06:17:51.297Z,3.10
2022-08-11T06:20:19.555Z,2.92
2022-08-11T06:22:52.904Z,3.13
2022-08-11T06:25:20.252Z,3.00
2022-08-11T06:27:48.820Z,3.28
2022-08-11T06:30:17.093Z,3.00
2022-08-11T06:32:45.622Z,2.85
2022-08-11T06:35:18.822Z,2.83
2022-08-11T06:37:49.138Z,2.58
2022-08-11T06:40:41.226Z,3.15
2022-08-11T06:43:17.680Z,2.83
2022-08-11T06:45:57.286Z,2.70
2022-08-11T06:48:25.142Z,3.00
2022-08-11T06:51:12.319Z,3.28
2022-08-11T06:54:03.082Z,2.83
2022-08-11T06:57:12.147Z,2.72
2022-08-11T06:59:58.406Z,2.90
2022-08-11T07:02:31.210Z,2.65
2022-08-11T07:05:04.155Z,2.87
2022-08-11T07:07:49.838Z,2.60
2022-08-11T07:10:51.966Z,3.20
2022-08-11T07:13:44.858Z,2.60
2022-08-11T07:16:15.576Z,2.65
2022-08-11T07:19:01.646Z,3.15
2022-08-11T07:22:01.280Z,2.90
2022-08-11T07:25:02.038Z,2.75
2022-08-11T07:27:50.981Z,2.20
2022-08-11T07:30:18.350Z,2.80
2022-08-11T07:32:49.105Z,2.92
2022-08-11T07:35:25.188Z,3.10
2022-08-11T07:38:02.055Z,2.80
2022-08-11T07:40:29.908Z,2.90
2022-08-11T07:42:57.762Z,2.83
2022-08-11T07:45:44.607Z,2.63
2022-08-11T07:48:31.073Z,2.90
2022-08-11T07:51:17.586Z,2.70
2022-08-11T07:53:58.392Z,2.40
2022-08-11T07:56:55.347Z,2.60
2022-08-11T08:00:00.131Z,2.65
2022-08-11T08:02:44.559Z,2.60
2022-08-11T08:05:30.713Z,2.83
2022-08-11T08:08:17.352Z,2.20
2022-08-11T08:11:03.421Z,2.63
2022-08-11T08:13:51.699Z,2.60
2022-08-11T08:16:37.736Z,2.33
2022-08-11T08:19:04.948Z,2.40
2022-08-11T08:21:32.220Z,2.35
2022-08-11T08:23:59.441Z,2.50
2022-08-11T08:26:48.366Z,2.50
2022-08-11T08:29:38.263Z,2.40
2022-08-11T08:32:05.704Z,2.40
2022-08-11T08:34:33.602Z,2.58
2022-08-11T08:37:01.270Z,2.33
2022-08-11T08:39:29.052Z,2.55
2022-08-11T08:41:57.866Z,2.58
2022-08-11T08:44:42.068Z,2.70
2022-08-11T08:47:14.757Z,2.25
2022-08-11T08:50:03.258Z,2.08
2022-08-11T08:52:38.796Z,2.13
2022-08-11T08:55:08.195Z,2.15
2022-08-11T08:57:37.290Z,2.42
2022-08-11T09:00:07.477Z,2.40
2022-08-11T09:02:36.943Z,2.60
2022-08-11T09:05:04.971Z,2.60
2022-08-11T09:07:38.867Z,2.50
2022-08-11T09:10:08.370Z,2.40
2022-08-11T09:12:38.877Z,2.60
2022-08-11T09:15:09.098Z,2.45
2022-08-11T09:17:36.237Z,2.22
2022-08-11T09:20:06.109Z,2.33
2022-08-11T09:23:41.327Z,2.42
2022-08-11T09:26:05.024Z,2.42
2022-08-11T09:28:32.379Z,2.60
2022-08-11T09:31:01.765Z,2.10
2022-08-11T09:33:29.928Z,2.33
2022-08-11T09:35:57.353Z,2.25
2022-08-11T09:38:49.385Z,2.50
2022-08-11T09:41:17.277Z,2.58
2022-08-11T09:44:04.529Z,2.10
2022-08-11T09:46:33.100Z,2.35
2022-08-11T09:49:01.427Z,2.70
2022-08-11T09:51:31.502Z,3.22
2022-08-11T09:54:03.436Z,2.47
2022-08-11T09:56:50.622Z,2.53
2022-08-11T09:59:20.330Z,2.33
2022-08-11T10:01:49.216Z,2.45
2022-08-11T10:04:18.411Z,2.40
2022-08-11T10:07:04.926Z,2.30
2022-08-11T10:09:38.140Z,2.25
2022-08-11T10:12:07.173Z,2.40
2022-08-11T10:14:53.707Z,2.35
2022-08-11T10:17:22.847Z,2.28
2022-08-11T10:20:05.435Z,2.22
2022-08-11T10:22:51.885Z,2.60
2022-08-11T10:25:37.677Z,2.40
2022-08-11T10:28:32.844Z,2.42
2022-08-11T10:31:14.427Z,2.10
2022-08-11T10:34:00.134Z,2.05
2022-08-11T10:36:49.083Z,2.42
2022-08-11T10:39:18.718Z,2.10
2022-08-11T10:42:08.701Z,2.53
2022-08-11T10:44:48.499Z,2.03
2022-08-11T10:47:34.698Z,2.05
2022-08-11T10:50:30.686Z,2.15
2022-08-11T10:53:17.635Z,2.10
2022-08-11T10:58:50.170Z,2.00
2022-08-11T11:01:17.698Z,1.90
2022-08-11T11:03:45.448Z,2.10
2022-08-11T11:06:29.305Z,2.13
2022-08-11T11:09:04.420Z,1.90
2022-08-11T11:11:53.624Z,1.90
2022-08-11T11:14:46.135Z,2.10
2022-08-11T11:17:35.233Z,2.20
2022-08-11T11:20:04.517Z,2.10
2022-08-11T11:22:38.361Z,2.30
2022-08-11T11:25:17.689Z,2.22
2022-08-11T11:27:56.852Z,2.00
2022-08-11T11:30:27.089Z,2.03
2022-08-11T11:32:57.288Z,2.00
2022-08-11T11:35:37.016Z,2.15
2022-08-11T11:38:13.747Z,1.67
2022-08-11T11:40:41.441Z,1.80
2022-08-11T11:43:08.893Z,1.88
2022-08-11T11:45:36.431Z,1.80
2022-08-11T11:48:03.754Z,1.92
2022-08-11T11:50:37.074Z,1.83
2022-08-11T11:53:10.573Z,1.90
2022-08-11T11:55:38.007Z,2.03
2022-08-11T11:58:24.242Z,1.95
2022-08-11T12:01:11.661Z,1.95
2022-08-11T12:03:40.290Z,1.90
2022-08-11T12:06:08.765Z,1.75
2022-08-11T12:08:37.488Z,2.05
2022-08-11T12:11:25.374Z,1.92
2022-08-11T12:13:53.250Z,2.10
2022-08-11T12:16:34.484Z,1.90
2022-08-11T12:19:04.766Z,2.10
2022-08-11T12:21:32.142Z,1.90
2022-08-11T12:24:20.503Z,1.90
2022-08-11T12:27:15.898Z,1.90
2022-08-11T12:29:44.311Z,1.90
2022-08-11T12:32:11.730Z,1.92
2022-08-11T12:34:38.932Z,2.00
2022-08-11T12:37:12.900Z,2.15
2022-08-11T12:40:15.623Z,2.35
2022-08-11T12:43:21.589Z,1.83
2022-08-11T12:45:51.837Z,2.05
2022-08-11T12:49:01.254Z,1.95
2022-08-11T12:52:13.815Z,2.20
2022-08-11T12:54:47.086Z,2.35
2022-08-11T12:57:36.478Z,2.00
2022-08-11T13:00:24.811Z,1.80
2022-08-11T13:03:11.189Z,2.10
2022-08-11T13:05:40.224Z,1.75
2022-08-11T13:08:14.337Z,1.92
2022-08-11T13:11:00.561Z,2.00
2022-08-11T13:13:55.554Z,1.80
2022-08-11T13:16:15.534Z,1.83
2022-08-11T13:18:43.454Z,2.08
2022-08-11T13:21:11.417Z,1.80
2022-08-11T13:24:01.179Z,1.92
2022-08-11T13:26:43.382Z,2.05
2022-08-11T13:29:16.306Z,2.10
2022-08-11T13:31:43.438Z,2.08
2022-08-11T13:34:10.998Z,1.83
2022-08-11T13:36:38.675Z,1.70
2022-08-11T13:39:06.114Z,2.08
2022-08-11T13:41:39.518Z,1.98
2022-08-11T13:44:12.380Z,1.90
2022-08-11T13:46:44.297Z,1.90
2022-08-11T13:49:12.048Z,1.90
2022-08-11T13:51:40.120Z,1.90
2022-08-11T13:54:09.344Z,1.83
2022-08-11T13:56:39.787Z,1.90
2022-08-11T13:59:11.168Z,1.95
2022-08-11T14:02:20.888Z,1.75
2022-08-11T14:04:32.235Z,1.77
2022-08-11T14:07:01.071Z,2.05
2022-08-11T14:09:30.829Z,1.80
2022-08-11T14:12:23.261Z,1.98
2022-08-11T14:14:54.318Z,2.08
2022-08-11T14:17:48.069Z,1.80
2022-08-11T14:20:35.362Z,1.70
2022-08-11T14:22:58.210Z,1.70
2022-08-11T14:26:00.136Z,2.20
2022-08-11T14:28:32.098Z,1.75
2022-08-11T14:31:02.272Z,1.90
2022-08-11T14:33:58.706Z,2.05
2022-08-11T14:36:17.730Z,1.77
2022-08-11T14:38:45.151Z,1.80
2022-08-11T14:41:31.184Z,1.90
2022-08-11T14:44:17.370Z,1.83
2022-08-11T14:47:03.398Z,1.80
2022-08-11T14:49:30.953Z,1.80
2022-08-11T14:51:59.358Z,1.60
2022-08-11T14:54:45.453Z,1.55
2022-08-11T14:57:12.872Z,1.77
2022-08-11T14:59:40.273Z,1.80
2022-08-11T15:02:26.581Z,1.80
2022-08-11T15:04:56.059Z,1.85
2022-08-11T15:07:29.928Z,1.98
2022-08-11T15:10:14.214Z,1.77
2022-08-11T15:12:42.436Z,1.75
2022-08-11T15:15:29.100Z,2.00
2022-08-11T15:17:57.385Z,1.80
2022-08-11T15:20:45.585Z,1.92
2022-08-11T15:23:31.649Z,1.80
2022-08-11T15:26:03.227Z,1.70
2022-08-11T15:28:50.491Z,1.58
2022-08-11T15:31:38.604Z,1.75
2022-08-11T15:34:25.728Z,2.00
2022-08-11T15:37:15.150Z,1.80
2022-08-11T15:40:05.319Z,1.83
2022-08-11T15:42:51.654Z,2.17
2022-08-11T15:45:41.482Z,1.90
2022-08-11T15:48:10.616Z,1.90
2022-08-11T15:50:40.658Z,1.88
2022-08-11T15:53:10.180Z,2.10
2022-08-11T15:55:38.385Z,2.00
2022-08-11T15:58:27.683Z,2.13
2022-08-11T16:01:30.940Z,1.90
2022-08-11T16:04:12.960Z,1.95
2022-08-11T16:06:44.048Z,2.20
2022-08-11T16:09:19.150Z,2.00
2022-08-11T16:11:46.894Z,2.33
2022-08-11T16:14:34.480Z,1.88
2022-08-11T16:17:02.678Z,1.90
2022-08-11T16:19:36.052Z,1.80
2022-08-11T16:22:07.315Z,1.90
2022-08-11T16:27:05.194Z,1.95
2022-08-11T16:27:24.490Z,1.70
2022-08-11T16:29:52.461Z,2.10
2022-08-11T16:32:22.219Z,2.08
2022-08-11T16:35:20.182Z,2.10
2022-08-11T16:38:06.395Z,2.13
2022-08-11T16:40:34.295Z,1.90
2022-08-11T16:43:20.634Z,1.80
2022-08-11T16:46:07.788Z,1.92
2022-08-11T16:48:38.608Z,2.08
2022-08-11T16:51:07.348Z,2.10
2022-08-11T16:54:03.474Z,1.90
2022-08-11T16:56:25.783Z,1.90
2022-08-11T16:59:14.770Z,2.08
2022-08-11T17:01:53.004Z,2.35
2022-08-11T17:04:40.395Z,1.90
2022-08-11T17:07:41.691Z,2.00
2022-08-11T17:10:50.354Z,2.00
2022-08-11T17:13:20.432Z,2.00
2022-08-11T17:16:09.899Z,1.98
2022-08-11T17:19:06.196Z,1.92
2022-08-11T17:22:02.824Z,2.00
2022-08-11T17:24:32.292Z,2.15
2022-08-11T17:27:00.296Z,2.15
2022-08-11T17:29:54.624Z,2.20
2022-08-11T17:33:13.239Z,1.98
2022-08-11T17:35:44.434Z,2.20
2022-08-11T17:38:11.838Z,2.10
2022-08-11T17:41:01.005Z,1.98
2022-08-11T17:43:47.397Z,1.88
2022-08-11T17:46:34.366Z,1.80
2022-08-11T17:49:02.302Z,1.90
2022-08-11T17:51:48.707Z,1.95
2022-08-11T17:54:35.084Z,2.20
2022-08-11T17:57:21.977Z,2.17
2022-08-11T17:59:53.386Z,2.15
2022-08-11T18:02:41.941Z,1.77
2022-08-11T18:05:13.459Z,2.20
2022-08-11T18:08:00.604Z,2.13
2022-08-11T18:10:47.003Z,2.00
2022-08-11T18:13:32.827Z,2.20
2022-08-11T18:16:18.850Z,1.90
2022-08-11T18:19:04.936Z,2.33
2022-08-11T18:22:02.302Z,2.03
2022-08-11T18:24:57.846Z,2.03
2022-08-11T18:27:49.985Z,2.10
2022-08-11T18:30:35.942Z,2.10
2022-08-11T18:33:50.512Z,2.00
2022-08-11T18:36:30.183Z,2.05
2022-08-11T18:39:16.183Z,2.25
2022-08-11T18:42:03.733Z,2.50
2022-08-11T18:44:51.804Z,2.80
2022-08-11T18:47:39.571Z,2.13
2022-08-11T18:50:37.340Z,2.20
2022-08-11T18:53:26.340Z,2.30
2022-08-11T18:56:12.322Z,2.33
2022-08-11T18:59:00.657Z,2.25
2022-08-11T19:01:47.106Z,2.30
2022-08-11T19:04:37.881Z,2.38
2022-08-11T19:07:24.986Z,2.40
2022-08-11T19:10:12.031Z,2.50
2022-08-11T19:12:59.556Z,2.55
2022-08-11T19:15:45.622Z,2.45
2022-08-11T19:18:35.974Z,2.40
2022-08-11T19:21:22.306Z,2.20
2022-08-11T19:24:10.900Z,2.42
2022-08-11T19:26:57.362Z,2.63
2022-08-11T19:30:06.982Z,2.50
2022-08-11T19:32:50.888Z,2.33
2022-08-11T19:35:36.996Z,2.10
2022-08-11T19:38:22.918Z,2.33
2022-08-11T19:41:09.290Z,2.15
2022-08-11T19:43:56.276Z,2.22
2022-08-11T19:46:42.768Z,2.40
2022-08-11T19:49:29.112Z,2.70
2022-08-11T19:52:16.270Z,2.33
2022-08-11T19:55:02.924Z,2.65
2022-08-11T19:57:48.968Z,2.47
2022-08-11T20:00:37.077Z,2.85
2022-08-11T20:03:25.187Z,2.50
2022-08-11T20:06:11.153Z,2.25
2022-08-11T20:08:59.650Z,2.95
2022-08-11T20:11:46.587Z,2.40
2022-08-11T20:14:32.548Z,2.53
2022-08-11T20:17:19.052Z,2.78
2022-08-11T20:20:05.065Z,2.58
2022-08-11T20:22:51.168Z,2.85
2022-08-11T20:25:37.290Z,2.50
2022-08-11T20:28:24.928Z,2.28
2022-08-11T20:31:11.898Z,2.42
2022-08-11T20:33:58.091Z,2.50
2022-08-11T20:36:48.724Z,2.60
2022-08-11T20:39:41.042Z,2.47
2022-08-11T20:42:30.268Z,2.50
2022-08-11T20:45:17.894Z,2.22
2022-08-11T20:48:10.638Z,2.30
2022-08-11T20:51:16.719Z,2.40
2022-08-11T20:54:05.548Z,2.45
2022-08-11T20:56:53.522Z,2.20
2022-08-11T20:59:52.782Z,2.30
2022-08-11T21:02:44.545Z,2.10
2022-08-11T21:06:09.452Z,2.38
2022-08-11T21:08:37.800Z,2.17
2022-08-11T21:11:27.974Z,2.22
2022-08-11T21:14:14.616Z,2.17
2022-08-11T21:17:01.060Z,2.65
2022-08-11T21:20:15.559Z,2.65
2022-08-11T21:23:26.029Z,2.38
2022-08-11T21:26:16.613Z,2.50
2022-08-11T21:29:03.084Z,2.60
2022-08-11T21:31:50.044Z,2.17
2022-08-11T21:34:37.977Z,2.38
2022-08-11T21:37:24.445Z,2.58
2022-08-11T21:40:16.391Z,2.28
2022-08-11T21:43:04.540Z,2.47
2022-08-11T21:45:51.394Z,2.40
2022-08-11T21:48:37.713Z,2.50
2022-08-11T21:51:24.061Z,2.50
2022-08-11T21:54:10.021Z,2.30
2022-08-11T21:56:56.186Z,2.42
2022-08-11T21:59:47.220Z,2.33
2022-08-11T22:02:33.331Z,2.60
2022-08-11T22:05:19.438Z,2.58
2022-08-11T22:08:05.607Z,2.80
2022-08-11T22:10:51.680Z,2.80
2022-08-11T22:13:37.840Z,2.30
2022-08-11T22:16:23.873Z,2.70
2022-08-11T22:19:10.305Z,2.78
2022-08-11T22:22:04.281Z,2.83
2022-08-11T22:24:52.784Z,2.78
2022-08-11T22:27:39.451Z,2.70
2022-08-11T22:30:26.542Z,2.80
2022-08-11T22:33:12.618Z,2.40
2022-08-11T22:36:01.224Z,2.88
2022-08-11T22:38:48.018Z,2.65
2022-08-11T22:41:34.141Z,2.42
2022-08-11T22:44:20.043Z,2.67
2022-08-11T22:47:05.924Z,3.03
2022-08-11T22:49:57.783Z,2.92
2022-08-11T22:52:44.610Z,2.72
2022-08-11T22:55:30.559Z,2.67
2022-08-11T22:58:16.541Z,2.80
2022-08-11T23:01:02.765Z,2.88
2022-08-11T23:03:48.932Z,3.00
2022-08-11T23:06:34.868Z,2.95
2022-08-11T23:09:20.806Z,2.72
2022-08-11T23:12:10.346Z,2.95
2022-08-11T23:14:57.040Z,2.90
2022-08-11T23:17:43.634Z,2.70
2022-08-11T23:20:42.275Z,2.90
2022-08-11T23:23:35.662Z,2.53
2022-08-11T23:26:22.628Z,3.03
2022-08-11T23:29:08.644Z,2.60
2022-08-11T23:31:54.974Z,2.70
2022-08-11T23:35:04.193Z,2.70
2022-08-11T23:37:48.976Z,2.67
2022-08-11T23:40:34.999Z,2.90
2022-08-11T23:43:21.280Z,3.07
2022-08-11T23:46:07.393Z,2.78
2022-08-11T23:48:53.206Z,3.00
2022-08-11T23:51:41.148Z,2.70
2022-08-11T23:54:28.249Z,2.70
2022-08-11T23:57:14.753Z,2.50
